sensor_id;sensor_type;location;lat;lon;timestamp;temperature;humidity
14172;DHT22;7165;52.388;4.928;2023-08-30T00:00:50;15.10;99.90
14172;DHT22;7165;52.388;4.928;2023-08-30T00:03:18;15.20;99.90
14172;DHT22;7165;52.388;4.928;2023-08-30T00:05:44;15.20;99.90
14172;DHT22;7165;52.388;4.928;2023-08-30T00:08:11;15.20;99.90
14172;DHT22;7165;52.388;4.928;2023-08-30T00:10:38;15.20;99.90
14172;DHT22;7165;52.388;4.928;2023-08-30T00:13:08;15.30;99.90
14172;DHT22;7165;52.388;4.928;2023-08-30T00:15:35;15.30;99.90
14172;DHT22;7165;52.388;4.928;2023-08-30T00:18:02;15.30;99.90
14172;DHT22;7165;52.388;4.928;2023-08-30T00:20:29;15.30;99.90
14172;DHT22;7165;52.388;4.928;2023-08-30T00:22:55;15.40;99.90
14172;DHT22;7165;52.388;4.928;2023-08-30T00:25:22;15.40;99.90
14172;DHT22;7165;52.388;4.928;2023-08-30T00:27:48;15.50;99.90
14172;DHT22;7165;52.388;4.928;2023-08-30T00:30:15;15.50;99.90
14172;DHT22;7165;52.388;4.928;2023-08-30T00:32:43;15.50;99.90
14172;DHT22;7165;52.388;4.928;2023-08-30T00:35:10;15.50;99.90
14172;DHT22;7165;52.388;4.928;2023-08-30T00:37:36;15.50;99.90
14172;DHT22;7165;52.388;4.928;2023-08-30T00:40:03;15.50;99.90
14172;DHT22;7165;52.388;4.928;2023-08-30T00:42:31;15.50;99.90
14172;DHT22;7165;52.388;4.928;2023-08-30T00:44:57;15.50;99.90
14172;DHT22;7165;52.388;4.928;2023-08-30T00:47:24;15.50;99.90
14172;DHT22;7165;52.388;4.928;2023-08-30T00:49:52;15.50;99.90
14172;DHT22;7165;52.388;4.928;2023-08-30T00:52:18;15.50;99.90
14172;DHT22;7165;52.388;4.928;2023-08-30T00:54:45;15.40;99.90
14172;DHT22;7165;52.388;4.928;2023-08-30T00:57:11;15.40;99.90
14172;DHT22;7165;52.388;4.928;2023-08-30T00:59:38;15.40;99.90
14172;DHT22;7165;52.388;4.928;2023-08-30T01:02:05;15.40;99.90
14172;DHT22;7165;52.388;4.928;2023-08-30T01:04:31;15.40;99.90
14172;DHT22;7165;52.388;4.928;2023-08-30T01:07:14;15.40;99.90
14172;DHT22;7165;52.388;4.928;2023-08-30T01:09:40;15.40;99.90
14172;DHT22;7165;52.388;4.928;2023-08-30T01:12:08;15.40;99.90
14172;DHT22;7165;52.388;4.928;2023-08-30T01:14:38;15.30;99.90
14172;DHT22;7165;52.388;4.928;2023-08-30T01:17:05;15.30;99.90
14172;DHT22;7165;52.388;4.928;2023-08-30T01:19:36;15.30;99.90
14172;DHT22;7165;52.388;4.928;2023-08-30T01:24:54;15.30;99.90
14172;DHT22;7165;52.388;4.928;2023-08-30T01:27:24;15.30;99.90
14172;DHT22;7165;52.388;4.928;2023-08-30T01:29:51;15.30;99.90
14172;DHT22;7165;52.388;4.928;2023-08-30T01:32:18;15.30;99.90
14172;DHT22;7165;52.388;4.928;2023-08-30T01:34:45;15.30;99.90
14172;DHT22;7165;52.388;4.928;2023-08-30T01:37:12;15.30;99.90
14172;DHT22;7165;52.388;4.928;2023-08-30T01:39:39;15.30;99.90
14172;DHT22;7165;52.388;4.928;2023-08-30T01:42:07;15.30;99.90
14172;DHT22;7165;52.388;4.928;2023-08-30T01:44:35;15.30;99.90
14172;DHT22;7165;52.388;4.928;2023-08-30T01:47:04;15.30;99.90
14172;DHT22;7165;52.388;4.928;2023-08-30T01:49:31;15.20;99.90
14172;DHT22;7165;52.388;4.928;2023-08-30T01:51:58;15.20;99.90
14172;DHT22;7165;52.388;4.928;2023-08-30T01:54:25;15.30;99.90
14172;DHT22;7165;52.388;4.928;2023-08-30T01:56:51;15.20;99.90
14172;DHT22;7165;52.388;4.928;2023-08-30T01:59:18;15.30;99.90
14172;DHT22;7165;52.388;4.928;2023-08-30T02:01:46;15.30;99.90
14172;DHT22;7165;52.388;4.928;2023-08-30T02:04:12;15.30;99.90
14172;DHT22;7165;52.388;4.928;2023-08-30T02:06:39;15.30;99.90
14172;DHT22;7165;52.388;4.928;2023-08-30T02:09:09;15.30;99.90
14172;DHT22;7165;52.388;4.928;2023-08-30T02:11:36;15.30;99.90
14172;DHT22;7165;52.388;4.928;2023-08-30T02:14:05;15.30;99.90
14172;DHT22;7165;52.388;4.928;2023-08-30T02:16:33;15.30;99.90
14172;DHT22;7165;52.388;4.928;2023-08-30T02:19:01;15.30;99.90
14172;DHT22;7165;52.388;4.928;2023-08-30T02:21:28;15.30;99.90
14172;DHT22;7165;52.388;4.928;2023-08-30T02:23:54;15.30;99.90
14172;DHT22;7165;52.388;4.928;2023-08-30T02:26:21;15.30;99.90
14172;DHT22;7165;52.388;4.928;2023-08-30T02:28:47;15.30;99.90
14172;DHT22;7165;52.388;4.928;2023-08-30T02:31:14;15.30;99.90
14172;DHT22;7165;52.388;4.928;2023-08-30T02:33:41;15.30;99.90
14172;DHT22;7165;52.388;4.928;2023-08-30T02:36:08;15.30;99.90
14172;DHT22;7165;52.388;4.928;2023-08-30T02:38:36;15.30;99.90
14172;DHT22;7165;52.388;4.928;2023-08-30T02:41:02;15.30;99.90
14172;DHT22;7165;52.388;4.928;2023-08-30T02:43:29;15.30;99.90
14172;DHT22;7165;52.388;4.928;2023-08-30T02:45:55;15.30;99.90
14172;DHT22;7165;52.388;4.928;2023-08-30T02:48:22;15.30;99.90
14172;DHT22;7165;52.388;4.928;2023-08-30T02:50:48;15.30;99.90
14172;DHT22;7165;52.388;4.928;2023-08-30T02:53:16;15.30;99.90
14172;DHT22;7165;52.388;4.928;2023-08-30T02:55:42;15.30;99.90
14172;DHT22;7165;52.388;4.928;2023-08-30T02:58:09;15.40;99.90
14172;DHT22;7165;52.388;4.928;2023-08-30T03:00:35;15.30;99.90
14172;DHT22;7165;52.388;4.928;2023-08-30T03:03:01;15.40;99.90
14172;DHT22;7165;52.388;4.928;2023-08-30T03:05:28;15.30;99.90
14172;DHT22;7165;52.388;4.928;2023-08-30T03:07:54;15.30;99.90
14172;DHT22;7165;52.388;4.928;2023-08-30T03:10:22;15.20;99.90
14172;DHT22;7165;52.388;4.928;2023-08-30T03:12:48;15.20;99.90
14172;DHT22;7165;52.388;4.928;2023-08-30T03:15:15;15.20;99.90
14172;DHT22;7165;52.388;4.928;2023-08-30T03:17:42;15.10;99.90
14172;DHT22;7165;52.388;4.928;2023-08-30T03:20:08;15.10;99.90
14172;DHT22;7165;52.388;4.928;2023-08-30T03:22:35;15.10;99.90
14172;DHT22;7165;52.388;4.928;2023-08-30T03:25:02;15.10;99.90
14172;DHT22;7165;52.388;4.928;2023-08-30T03:27:30;15.00;99.90
14172;DHT22;7165;52.388;4.928;2023-08-30T03:29:56;15.00;99.90
14172;DHT22;7165;52.388;4.928;2023-08-30T03:32:23;15.00;99.90
14172;DHT22;7165;52.388;4.928;2023-08-30T03:34:50;15.00;99.90
14172;DHT22;7165;52.388;4.928;2023-08-30T03:37:16;15.00;99.90
14172;DHT22;7165;52.388;4.928;2023-08-30T03:39:43;15.00;99.90
14172;DHT22;7165;52.388;4.928;2023-08-30T03:42:09;15.00;99.90
14172;DHT22;7165;52.388;4.928;2023-08-30T03:44:38;15.00;99.90
14172;DHT22;7165;52.388;4.928;2023-08-30T03:47:04;15.00;99.90
14172;DHT22;7165;52.388;4.928;2023-08-30T03:49:31;14.90;99.90
14172;DHT22;7165;52.388;4.928;2023-08-30T03:51:57;14.90;99.90
14172;DHT22;7165;52.388;4.928;2023-08-30T03:54:24;14.80;99.90
14172;DHT22;7165;52.388;4.928;2023-08-30T03:56:50;14.80;99.90
14172;DHT22;7165;52.388;4.928;2023-08-30T03:59:17;14.80;99.90
14172;DHT22;7165;52.388;4.928;2023-08-30T04:01:45;14.80;99.90
14172;DHT22;7165;52.388;4.928;2023-08-30T04:04:11;14.70;99.90
14172;DHT22;7165;52.388;4.928;2023-08-30T04:06:38;14.70;99.90
14172;DHT22;7165;52.388;4.928;2023-08-30T04:09:04;14.70;99.90
14172;DHT22;7165;52.388;4.928;2023-08-30T04:11:31;14.70;99.90
14172;DHT22;7165;52.388;4.928;2023-08-30T04:13:58;14.70;99.90
14172;DHT22;7165;52.388;4.928;2023-08-30T04:16:24;14.70;99.90
14172;DHT22;7165;52.388;4.928;2023-08-30T04:18:52;14.70;99.90
14172;DHT22;7165;52.388;4.928;2023-08-30T04:21:18;14.70;99.90
14172;DHT22;7165;52.388;4.928;2023-08-30T04:23:45;14.70;99.90
14172;DHT22;7165;52.388;4.928;2023-08-30T04:26:11;14.70;99.90
14172;DHT22;7165;52.388;4.928;2023-08-30T04:28:38;14.80;99.90
14172;DHT22;7165;52.388;4.928;2023-08-30T04:31:04;14.70;99.90
14172;DHT22;7165;52.388;4.928;2023-08-30T04:33:31;14.70;99.90
14172;DHT22;7165;52.388;4.928;2023-08-30T04:35:59;14.70;99.90
14172;DHT22;7165;52.388;4.928;2023-08-30T04:38:26;14.70;99.90
14172;DHT22;7165;52.388;4.928;2023-08-30T04:40:56;14.70;99.90
14172;DHT22;7165;52.388;4.928;2023-08-30T04:43:23;14.70;99.90
14172;DHT22;7165;52.388;4.928;2023-08-30T04:45:49;14.70;99.90
14172;DHT22;7165;52.388;4.928;2023-08-30T04:48:15;14.70;99.90
14172;DHT22;7165;52.388;4.928;2023-08-30T04:50:42;14.80;99.90
14172;DHT22;7165;52.388;4.928;2023-08-30T04:53:10;14.70;99.90
14172;DHT22;7165;52.388;4.928;2023-08-30T04:55:36;14.70;99.90
14172;DHT22;7165;52.388;4.928;2023-08-30T04:58:11;14.70;99.90
14172;DHT22;7165;52.388;4.928;2023-08-30T05:00:37;14.70;99.90
14172;DHT22;7165;52.388;4.928;2023-08-30T05:03:04;14.70;99.90
14172;DHT22;7165;52.388;4.928;2023-08-30T05:05:30;14.70;99.90
14172;DHT22;7165;52.388;4.928;2023-08-30T05:07:57;14.70;99.90
14172;DHT22;7165;52.388;4.928;2023-08-30T05:10:25;14.60;99.90
14172;DHT22;7165;52.388;4.928;2023-08-30T05:12:51;14.70;99.90
14172;DHT22;7165;52.388;4.928;2023-08-30T05:15:18;14.60;99.90
14172;DHT22;7165;52.388;4.928;2023-08-30T05:17:44;14.70;99.90
14172;DHT22;7165;52.388;4.928;2023-08-30T05:20:11;14.70;99.90
14172;DHT22;7165;52.388;4.928;2023-08-30T05:22:38;14.70;99.90
14172;DHT22;7165;52.388;4.928;2023-08-30T05:25:05;14.70;99.90
14172;DHT22;7165;52.388;4.928;2023-08-30T05:27:32;14.70;99.90
14172;DHT22;7165;52.388;4.928;2023-08-30T05:29:59;14.70;99.90
14172;DHT22;7165;52.388;4.928;2023-08-30T05:32:26;14.80;99.90
14172;DHT22;7165;52.388;4.928;2023-08-30T05:34:52;14.80;99.90
14172;DHT22;7165;52.388;4.928;2023-08-30T05:37:19;14.80;99.90
14172;DHT22;7165;52.388;4.928;2023-08-30T05:39:46;14.80;99.90
14172;DHT22;7165;52.388;4.928;2023-08-30T05:42:12;14.80;99.90
14172;DHT22;7165;52.388;4.928;2023-08-30T05:44:40;14.90;99.90
14172;DHT22;7165;52.388;4.928;2023-08-30T05:47:07;14.80;99.90
14172;DHT22;7165;52.388;4.928;2023-08-30T05:49:33;14.80;99.90
14172;DHT22;7165;52.388;4.928;2023-08-30T05:52:00;14.80;99.90
14172;DHT22;7165;52.388;4.928;2023-08-30T05:54:26;14.80;99.90
14172;DHT22;7165;52.388;4.928;2023-08-30T05:56:54;14.70;99.90
14172;DHT22;7165;52.388;4.928;2023-08-30T05:59:21;14.70;99.90
14172;DHT22;7165;52.388;4.928;2023-08-30T06:01:49;14.70;99.90
14172;DHT22;7165;52.388;4.928;2023-08-30T06:04:15;14.70;99.90
14172;DHT22;7165;52.388;4.928;2023-08-30T06:06:42;14.70;99.90
14172;DHT22;7165;52.388;4.928;2023-08-30T06:09:08;14.60;99.90
14172;DHT22;7165;52.388;4.928;2023-08-30T06:11:36;14.60;99.90
14172;DHT22;7165;52.388;4.928;2023-08-30T06:14:04;14.60;99.90
14172;DHT22;7165;52.388;4.928;2023-08-30T06:16:31;14.50;99.90
14172;DHT22;7165;52.388;4.928;2023-08-30T06:18:59;14.40;99.90
14172;DHT22;7165;52.388;4.928;2023-08-30T06:21:25;14.40;99.90
14172;DHT22;7165;52.388;4.928;2023-08-30T06:23:52;14.30;99.90
14172;DHT22;7165;52.388;4.928;2023-08-30T06:26:18;14.30;99.90
14172;DHT22;7165;52.388;4.928;2023-08-30T06:28:45;14.20;99.90
14172;DHT22;7165;52.388;4.928;2023-08-30T06:31:11;14.20;99.90
14172;DHT22;7165;52.388;4.928;2023-08-30T06:33:38;14.10;99.90
14172;DHT22;7165;52.388;4.928;2023-08-30T06:36:06;14.00;99.90
14172;DHT22;7165;52.388;4.928;2023-08-30T06:38:32;14.00;99.90
14172;DHT22;7165;52.388;4.928;2023-08-30T06:40:59;14.00;99.90
14172;DHT22;7165;52.388;4.928;2023-08-30T06:43:26;14.00;99.90
14172;DHT22;7165;52.388;4.928;2023-08-30T06:45:52;13.90;99.90
14172;DHT22;7165;52.388;4.928;2023-08-30T06:48:19;13.90;99.90
14172;DHT22;7165;52.388;4.928;2023-08-30T06:50:46;13.90;99.90
14172;DHT22;7165;52.388;4.928;2023-08-30T06:53:13;14.00;99.90
14172;DHT22;7165;52.388;4.928;2023-08-30T06:55:40;14.00;99.90
14172;DHT22;7165;52.388;4.928;2023-08-30T06:58:06;13.90;99.90
14172;DHT22;7165;52.388;4.928;2023-08-30T07:00:33;13.90;99.90
14172;DHT22;7165;52.388;4.928;2023-08-30T07:02:59;13.90;99.90
14172;DHT22;7165;52.388;4.928;2023-08-30T07:05:26;13.90;99.90
14172;DHT22;7165;52.388;4.928;2023-08-30T07:07:52;13.90;99.90
14172;DHT22;7165;52.388;4.928;2023-08-30T07:10:20;13.90;99.90
14172;DHT22;7165;52.388;4.928;2023-08-30T07:12:47;13.90;99.90
14172;DHT22;7165;52.388;4.928;2023-08-30T07:15:14;13.90;99.90
14172;DHT22;7165;52.388;4.928;2023-08-30T07:17:42;13.90;99.90
14172;DHT22;7165;52.388;4.928;2023-08-30T07:20:09;13.90;99.90
14172;DHT22;7165;52.388;4.928;2023-08-30T07:22:35;14.00;99.90
14172;DHT22;7165;52.388;4.928;2023-08-30T07:25:01;14.10;99.90
14172;DHT22;7165;52.388;4.928;2023-08-30T07:27:29;14.10;99.90
14172;DHT22;7165;52.388;4.928;2023-08-30T07:29:56;14.20;99.90
14172;DHT22;7165;52.388;4.928;2023-08-30T07:32:22;14.20;99.90
14172;DHT22;7165;52.388;4.928;2023-08-30T07:34:49;14.30;99.90
14172;DHT22;7165;52.388;4.928;2023-08-30T07:37:16;14.40;99.90
14172;DHT22;7165;52.388;4.928;2023-08-30T07:39:43;14.60;99.90
14172;DHT22;7165;52.388;4.928;2023-08-30T07:42:09;14.60;99.90
14172;DHT22;7165;52.388;4.928;2023-08-30T07:44:37;14.70;99.90
14172;DHT22;7165;52.388;4.928;2023-08-30T07:47:04;14.80;99.90
14172;DHT22;7165;52.388;4.928;2023-08-30T07:49:30;14.80;99.90
14172;DHT22;7165;52.388;4.928;2023-08-30T07:51:57;14.90;99.90
14172;DHT22;7165;52.388;4.928;2023-08-30T07:54:23;14.90;99.90
14172;DHT22;7165;52.388;4.928;2023-08-30T07:59:19;15.10;99.90
14172;DHT22;7165;52.388;4.928;2023-08-30T08:01:47;15.20;99.90
14172;DHT22;7165;52.388;4.928;2023-08-30T08:04:14;15.20;99.90
14172;DHT22;7165;52.388;4.928;2023-08-30T08:06:40;15.30;99.90
14172;DHT22;7165;52.388;4.928;2023-08-30T08:09:07;15.40;99.90
14172;DHT22;7165;52.388;4.928;2023-08-30T08:11:34;15.40;99.90
14172;DHT22;7165;52.388;4.928;2023-08-30T08:14:00;15.30;99.90
14172;DHT22;7165;52.388;4.928;2023-08-30T08:16:27;15.30;99.90
14172;DHT22;7165;52.388;4.928;2023-08-30T08:18:55;15.20;99.90
14172;DHT22;7165;52.388;4.928;2023-08-30T08:21:24;15.20;99.90
14172;DHT22;7165;52.388;4.928;2023-08-30T08:23:51;15.20;99.90
14172;DHT22;7165;52.388;4.928;2023-08-30T08:26:17;15.20;99.90
14172;DHT22;7165;52.388;4.928;2023-08-30T08:28:44;15.20;99.90
14172;DHT22;7165;52.388;4.928;2023-08-30T08:31:10;15.20;99.90
14172;DHT22;7165;52.388;4.928;2023-08-30T08:33:37;15.30;99.90
14172;DHT22;7165;52.388;4.928;2023-08-30T08:36:05;15.40;99.90
14172;DHT22;7165;52.388;4.928;2023-08-30T08:38:31;15.40;99.90
14172;DHT22;7165;52.388;4.928;2023-08-30T08:41:01;15.40;99.90
14172;DHT22;7165;52.388;4.928;2023-08-30T08:43:29;15.40;99.90
14172;DHT22;7165;52.388;4.928;2023-08-30T08:45:56;15.30;99.90
14172;DHT22;7165;52.388;4.928;2023-08-30T08:48:24;15.30;99.90
14172;DHT22;7165;52.388;4.928;2023-08-30T08:50:51;15.30;99.90
14172;DHT22;7165;52.388;4.928;2023-08-30T08:53:19;15.30;99.90
14172;DHT22;7165;52.388;4.928;2023-08-30T08:55:46;15.30;99.90
14172;DHT22;7165;52.388;4.928;2023-08-30T08:58:14;15.30;99.90
14172;DHT22;7165;52.388;4.928;2023-08-30T09:00:41;15.30;99.90
14172;DHT22;7165;52.388;4.928;2023-08-30T09:03:08;15.30;99.90
14172;DHT22;7165;52.388;4.928;2023-08-30T09:05:35;15.30;99.90
14172;DHT22;7165;52.388;4.928;2023-08-30T09:08:04;15.20;99.90
14172;DHT22;7165;52.388;4.928;2023-08-30T09:10:32;15.10;99.90
14172;DHT22;7165;52.388;4.928;2023-08-30T09:12:59;15.10;99.90
14172;DHT22;7165;52.388;4.928;2023-08-30T09:15:30;15.00;99.90
14172;DHT22;7165;52.388;4.928;2023-08-30T09:17:56;15.00;99.90
14172;DHT22;7165;52.388;4.928;2023-08-30T09:20:23;14.90;99.90
14172;DHT22;7165;52.388;4.928;2023-08-30T09:22:49;15.00;99.90
14172;DHT22;7165;52.388;4.928;2023-08-30T09:25:22;15.00;99.90
14172;DHT22;7165;52.388;4.928;2023-08-30T09:28:01;15.00;99.90
14172;DHT22;7165;52.388;4.928;2023-08-30T09:30:28;15.10;99.90
14172;DHT22;7165;52.388;4.928;2023-08-30T09:33:00;15.10;99.90
14172;DHT22;7165;52.388;4.928;2023-08-30T09:35:27;15.30;99.90
14172;DHT22;7165;52.388;4.928;2023-08-30T09:37:59;15.50;99.90
14172;DHT22;7165;52.388;4.928;2023-08-30T09:40:25;15.60;99.90
14172;DHT22;7165;52.388;4.928;2023-08-30T09:42:52;15.80;99.90
14172;DHT22;7165;52.388;4.928;2023-08-30T09:45:21;15.90;99.90
14172;DHT22;7165;52.388;4.928;2023-08-30T09:47:48;15.90;99.90
14172;DHT22;7165;52.388;4.928;2023-08-30T09:50:15;15.90;99.90
14172;DHT22;7165;52.388;4.928;2023-08-30T09:52:43;16.00;99.90
14172;DHT22;7165;52.388;4.928;2023-08-30T09:55:09;16.10;99.90
14172;DHT22;7165;52.388;4.928;2023-08-30T09:57:36;16.20;99.90
14172;DHT22;7165;52.388;4.928;2023-08-30T10:00:03;16.20;99.90
14172;DHT22;7165;52.388;4.928;2023-08-30T10:02:32;16.20;99.90
14172;DHT22;7165;52.388;4.928;2023-08-30T10:04:59;16.30;99.90
14172;DHT22;7165;52.388;4.928;2023-08-30T10:07:26;16.40;99.90
14172;DHT22;7165;52.388;4.928;2023-08-30T10:09:53;16.40;99.90
14172;DHT22;7165;52.388;4.928;2023-08-30T10:12:20;16.40;99.90
14172;DHT22;7165;52.388;4.928;2023-08-30T10:14:47;16.60;99.90
14172;DHT22;7165;52.388;4.928;2023-08-30T10:17:14;16.70;99.90
14172;DHT22;7165;52.388;4.928;2023-08-30T10:19:43;16.80;99.90
14172;DHT22;7165;52.388;4.928;2023-08-30T10:22:10;17.00;99.90
14172;DHT22;7165;52.388;4.928;2023-08-30T10:24:41;17.00;99.90
14172;DHT22;7165;52.388;4.928;2023-08-30T10:27:08;17.20;99.90
14172;DHT22;7165;52.388;4.928;2023-08-30T10:29:35;17.40;99.90
14172;DHT22;7165;52.388;4.928;2023-08-30T10:32:03;17.70;99.90
14172;DHT22;7165;52.388;4.928;2023-08-30T10:34:31;17.80;99.90
14172;DHT22;7165;52.388;4.928;2023-08-30T10:36:59;17.90;99.90
14172;DHT22;7165;52.388;4.928;2023-08-30T10:39:33;17.80;99.90
14172;DHT22;7165;52.388;4.928;2023-08-30T10:42:00;18.00;99.90
14172;DHT22;7165;52.388;4.928;2023-08-30T10:44:27;18.00;99.90
14172;DHT22;7165;52.388;4.928;2023-08-30T10:46:54;18.20;99.90
14172;DHT22;7165;52.388;4.928;2023-08-30T10:49:21;18.50;99.90
14172;DHT22;7165;52.388;4.928;2023-08-30T10:51:54;18.70;99.90
14172;DHT22;7165;52.388;4.928;2023-08-30T10:54:22;18.90;99.90
14172;DHT22;7165;52.388;4.928;2023-08-30T10:56:54;18.90;99.90
14172;DHT22;7165;52.388;4.928;2023-08-30T10:59:21;19.00;99.90
14172;DHT22;7165;52.388;4.928;2023-08-30T11:01:49;19.10;99.90
14172;DHT22;7165;52.388;4.928;2023-08-30T11:04:16;19.30;99.90
14172;DHT22;7165;52.388;4.928;2023-08-30T11:06:43;19.40;99.90
14172;DHT22;7165;52.388;4.928;2023-08-30T11:09:12;19.40;99.90
14172;DHT22;7165;52.388;4.928;2023-08-30T11:11:40;19.40;99.90
14172;DHT22;7165;52.388;4.928;2023-08-30T11:14:07;19.60;99.90
14172;DHT22;7165;52.388;4.928;2023-08-30T11:16:33;19.80;99.90
14172;DHT22;7165;52.388;4.928;2023-08-30T11:19:00;19.80;99.90
14172;DHT22;7165;52.388;4.928;2023-08-30T11:21:28;19.60;99.90
14172;DHT22;7165;52.388;4.928;2023-08-30T11:23:55;19.40;99.90
14172;DHT22;7165;52.388;4.928;2023-08-30T11:26:21;19.40;99.90
14172;DHT22;7165;52.388;4.928;2023-08-30T11:28:49;19.40;99.90
14172;DHT22;7165;52.388;4.928;2023-08-30T11:31:18;19.60;99.90
14172;DHT22;7165;52.388;4.928;2023-08-30T11:33:51;19.80;99.90
14172;DHT22;7165;52.388;4.928;2023-08-30T11:36:18;19.90;99.90
14172;DHT22;7165;52.388;4.928;2023-08-30T11:38:47;19.70;99.90
14172;DHT22;7165;52.388;4.928;2023-08-30T11:41:16;19.50;99.90
14172;DHT22;7165;52.388;4.928;2023-08-30T11:43:43;19.20;99.90
14172;DHT22;7165;52.388;4.928;2023-08-30T11:46:11;19.10;99.90
14172;DHT22;7165;52.388;4.928;2023-08-30T11:48:38;19.30;99.90
14172;DHT22;7165;52.388;4.928;2023-08-30T11:51:04;19.50;99.90
14172;DHT22;7165;52.388;4.928;2023-08-30T11:53:31;19.80;99.90
14172;DHT22;7165;52.388;4.928;2023-08-30T11:55:58;19.90;99.90
14172;DHT22;7165;52.388;4.928;2023-08-30T11:58:24;19.80;99.90
14172;DHT22;7165;52.388;4.928;2023-08-30T12:00:51;19.70;99.90
14172;DHT22;7165;52.388;4.928;2023-08-30T12:03:20;19.80;99.90
14172;DHT22;7165;52.388;4.928;2023-08-30T12:05:47;20.00;99.90
14172;DHT22;7165;52.388;4.928;2023-08-30T12:08:17;19.90;99.90
14172;DHT22;7165;52.388;4.928;2023-08-30T12:10:44;19.80;99.90
14172;DHT22;7165;52.388;4.928;2023-08-30T12:13:19;19.60;99.90
14172;DHT22;7165;52.388;4.928;2023-08-30T12:15:45;19.40;99.90
14172;DHT22;7165;52.388;4.928;2023-08-30T12:18:12;19.60;99.90
14172;DHT22;7165;52.388;4.928;2023-08-30T12:20:40;19.70;99.90
14172;DHT22;7165;52.388;4.928;2023-08-30T12:23:20;19.80;99.90
14172;DHT22;7165;52.388;4.928;2023-08-30T12:25:56;20.00;99.90
14172;DHT22;7165;52.388;4.928;2023-08-30T12:28:22;20.20;99.90
14172;DHT22;7165;52.388;4.928;2023-08-30T12:30:49;20.20;99.90
14172;DHT22;7165;52.388;4.928;2023-08-30T12:33:16;20.00;99.90
14172;DHT22;7165;52.388;4.928;2023-08-30T12:35:43;19.80;99.90
14172;DHT22;7165;52.388;4.928;2023-08-30T12:38:10;19.70;99.90
14172;DHT22;7165;52.388;4.928;2023-08-30T12:40:37;19.60;99.90
14172;DHT22;7165;52.388;4.928;2023-08-30T12:43:03;19.60;99.90
14172;DHT22;7165;52.388;4.928;2023-08-30T12:45:30;19.60;99.90
14172;DHT22;7165;52.388;4.928;2023-08-30T12:47:56;19.60;99.90
14172;DHT22;7165;52.388;4.928;2023-08-30T12:50:24;19.60;99.90
14172;DHT22;7165;52.388;4.928;2023-08-30T12:52:51;19.50;99.90
14172;DHT22;7165;52.388;4.928;2023-08-30T12:55:18;19.50;99.90
14172;DHT22;7165;52.388;4.928;2023-08-30T12:57:45;19.50;99.90
14172;DHT22;7165;52.388;4.928;2023-08-30T13:00:12;19.50;99.90
14172;DHT22;7165;52.388;4.928;2023-08-30T13:02:38;19.40;99.90
14172;DHT22;7165;52.388;4.928;2023-08-30T13:05:05;19.20;99.90
14172;DHT22;7165;52.388;4.928;2023-08-30T13:07:31;18.90;99.90
14172;DHT22;7165;52.388;4.928;2023-08-30T13:09:59;18.40;99.90
14172;DHT22;7165;52.388;4.928;2023-08-30T13:12:26;17.80;99.90
14172;DHT22;7165;52.388;4.928;2023-08-30T13:14:52;17.30;99.90
14172;DHT22;7165;52.388;4.928;2023-08-30T13:17:19;16.90;99.90
14172;DHT22;7165;52.388;4.928;2023-08-30T13:19:45;16.70;99.90
14172;DHT22;7165;52.388;4.928;2023-08-30T13:22:12;16.70;99.90
14172;DHT22;7165;52.388;4.928;2023-08-30T13:24:38;16.90;99.90
14172;DHT22;7165;52.388;4.928;2023-08-30T13:27:06;17.20;99.90
14172;DHT22;7165;52.388;4.928;2023-08-30T13:29:33;17.40;99.90
14172;DHT22;7165;52.388;4.928;2023-08-30T13:31:59;17.40;99.90
14172;DHT22;7165;52.388;4.928;2023-08-30T13:34:26;17.40;99.90
14172;DHT22;7165;52.388;4.928;2023-08-30T13:36:53;17.40;99.90
14172;DHT22;7165;52.388;4.928;2023-08-30T13:39:19;17.30;99.90
14172;DHT22;7165;52.388;4.928;2023-08-30T13:41:47;17.20;99.90
14172;DHT22;7165;52.388;4.928;2023-08-30T13:44:15;17.10;99.90
14172;DHT22;7165;52.388;4.928;2023-08-30T13:46:42;17.10;99.90
14172;DHT22;7165;52.388;4.928;2023-08-30T13:49:09;17.10;99.90
14172;DHT22;7165;52.388;4.928;2023-08-30T13:51:35;17.10;99.90
14172;DHT22;7165;52.388;4.928;2023-08-30T13:54:02;17.10;99.90
14172;DHT22;7165;52.388;4.928;2023-08-30T13:56:29;17.10;99.90
14172;DHT22;7165;52.388;4.928;2023-08-30T13:58:57;17.30;99.90
14172;DHT22;7165;52.388;4.928;2023-08-30T14:01:25;17.30;99.90
14172;DHT22;7165;52.388;4.928;2023-08-30T14:03:52;17.50;99.90
14172;DHT22;7165;52.388;4.928;2023-08-30T14:06:18;17.70;99.90
14172;DHT22;7165;52.388;4.928;2023-08-30T14:08:45;17.70;99.90
14172;DHT22;7165;52.388;4.928;2023-08-30T14:11:11;17.60;99.90
14172;DHT22;7165;52.388;4.928;2023-08-30T14:13:38;17.60;99.90
14172;DHT22;7165;52.388;4.928;2023-08-30T14:16:05;17.50;99.90
14172;DHT22;7165;52.388;4.928;2023-08-30T14:18:33;17.50;99.90
14172;DHT22;7165;52.388;4.928;2023-08-30T14:21:00;17.60;99.90
14172;DHT22;7165;52.388;4.928;2023-08-30T14:23:27;17.70;99.90
14172;DHT22;7165;52.388;4.928;2023-08-30T14:25:57;17.80;99.90
14172;DHT22;7165;52.388;4.928;2023-08-30T14:28:24;18.00;99.90
14172;DHT22;7165;52.388;4.928;2023-08-30T14:30:50;18.30;99.90
14172;DHT22;7165;52.388;4.928;2023-08-30T14:33:17;18.50;99.90
14172;DHT22;7165;52.388;4.928;2023-08-30T14:35:45;18.80;99.90
14172;DHT22;7165;52.388;4.928;2023-08-30T14:38:11;19.10;99.90
14172;DHT22;7165;52.388;4.928;2023-08-30T14:40:38;19.40;99.90
14172;DHT22;7165;52.388;4.928;2023-08-30T14:43:04;19.80;99.90
14172;DHT22;7165;52.388;4.928;2023-08-30T14:45:31;19.80;99.90
14172;DHT22;7165;52.388;4.928;2023-08-30T14:47:57;19.60;99.90
14172;DHT22;7165;52.388;4.928;2023-08-30T14:50:24;19.50;99.90
14172;DHT22;7165;52.388;4.928;2023-08-30T14:52:52;19.20;99.90
14172;DHT22;7165;52.388;4.928;2023-08-30T14:55:20;19.00;99.90
14172;DHT22;7165;52.388;4.928;2023-08-30T14:57:46;18.80;99.90
14172;DHT22;7165;52.388;4.928;2023-08-30T15:00:13;18.80;99.90
14172;DHT22;7165;52.388;4.928;2023-08-30T15:02:40;19.10;99.90
14172;DHT22;7165;52.388;4.928;2023-08-30T15:05:06;19.90;99.90
14172;DHT22;7165;52.388;4.928;2023-08-30T15:07:33;20.00;99.90
14172;DHT22;7165;52.388;4.928;2023-08-30T15:10:01;19.80;99.90
14172;DHT22;7165;52.388;4.928;2023-08-30T15:12:27;19.70;99.90
14172;DHT22;7165;52.388;4.928;2023-08-30T15:14:54;20.30;99.90
14172;DHT22;7165;52.388;4.928;2023-08-30T15:17:20;21.30;99.90
14172;DHT22;7165;52.388;4.928;2023-08-30T15:19:47;21.30;99.90
14172;DHT22;7165;52.388;4.928;2023-08-30T15:22:13;20.90;99.90
14172;DHT22;7165;52.388;4.928;2023-08-30T15:24:40;20.40;99.90
14172;DHT22;7165;52.388;4.928;2023-08-30T15:27:08;20.60;99.90
14172;DHT22;7165;52.388;4.928;2023-08-30T15:29:34;20.40;99.90
14172;DHT22;7165;52.388;4.928;2023-08-30T15:32:01;19.90;99.90
14172;DHT22;7165;52.388;4.928;2023-08-30T15:34:27;19.50;99.90
14172;DHT22;7165;52.388;4.928;2023-08-30T15:36:54;19.40;99.90
14172;DHT22;7165;52.388;4.928;2023-08-30T15:39:20;19.50;99.90
14172;DHT22;7165;52.388;4.928;2023-08-30T15:41:47;19.40;99.90
14172;DHT22;7165;52.388;4.928;2023-08-30T15:44:15;19.40;99.90
14172;DHT22;7165;52.388;4.928;2023-08-30T15:46:41;20.40;99.90
14172;DHT22;7165;52.388;4.928;2023-08-30T15:49:08;22.10;99.90